sensor_id;sensor_type;location;lat;lon;timestamp;temperature;humidity
42989;DHT22;28622;43.716;20.668;2022-12-07T00:01:13;8.60;99.90
42989;DHT22;28622;43.716;20.668;2022-12-07T00:03:42;8.60;99.90
42989;DHT22;28622;43.716;20.668;2022-12-07T00:06:10;8.60;99.90
42989;DHT22;28622;43.716;20.668;2022-12-07T00:08:36;8.60;99.90
42989;DHT22;28622;43.716;20.668;2022-12-07T00:11:07;8.60;99.90
42989;DHT22;28622;43.716;20.668;2022-12-07T00:13:35;8.60;99.90
42989;DHT22;28622;43.716;20.668;2022-12-07T00:18:33;8.60;99.90
42989;DHT22;28622;43.716;20.668;2022-12-07T00:21:04;8.60;99.90
42989;DHT22;28622;43.716;20.668;2022-12-07T00:23:32;8.60;99.90
42989;DHT22;28622;43.716;20.668;2022-12-07T00:26:13;8.60;99.90
42989;DHT22;28622;43.716;20.668;2022-12-07T00:28:39;8.60;99.90
42989;DHT22;28622;43.716;20.668;2022-12-07T00:31:10;8.60;99.90
42989;DHT22;28622;43.716;20.668;2022-12-07T00:33:37;8.60;99.90
42989;DHT22;28622;43.716;20.668;2022-12-07T00:36:06;8.60;99.90
42989;DHT22;28622;43.716;20.668;2022-12-07T00:38:34;8.60;99.90
42989;DHT22;28622;43.716;20.668;2022-12-07T00:41:02;8.50;99.90
42989;DHT22;28622;43.716;20.668;2022-12-07T00:43:29;8.50;99.90
42989;DHT22;28622;43.716;20.668;2022-12-07T00:45:55;8.50;99.90
42989;DHT22;28622;43.716;20.668;2022-12-07T00:48:22;8.50;99.90
42989;DHT22;28622;43.716;20.668;2022-12-07T00:50:48;8.50;99.90
42989;DHT22;28622;43.716;20.668;2022-12-07T00:53:14;8.50;99.90
42989;DHT22;28622;43.716;20.668;2022-12-07T00:55:40;8.50;99.90
42989;DHT22;28622;43.716;20.668;2022-12-07T00:58:06;8.50;99.90
42989;DHT22;28622;43.716;20.668;2022-12-07T01:00:32;8.60;99.90
42989;DHT22;28622;43.716;20.668;2022-12-07T01:02:59;8.50;99.90
42989;DHT22;28622;43.716;20.668;2022-12-07T01:05:24;8.50;99.90
42989;DHT22;28622;43.716;20.668;2022-12-07T01:07:50;8.50;99.90
42989;DHT22;28622;43.716;20.668;2022-12-07T01:10:16;8.50;99.90
42989;DHT22;28622;43.716;20.668;2022-12-07T01:12:42;8.50;99.90
42989;DHT22;28622;43.716;20.668;2022-12-07T01:15:08;8.50;99.90
42989;DHT22;28622;43.716;20.668;2022-12-07T01:17:34;8.50;99.90
42989;DHT22;28622;43.716;20.668;2022-12-07T01:20:01;8.50;99.90
42989;DHT22;28622;43.716;20.668;2022-12-07T01:22:26;8.50;99.90
42989;DHT22;28622;43.716;20.668;2022-12-07T01:24:55;8.50;99.90
42989;DHT22;28622;43.716;20.668;2022-12-07T01:27:21;8.50;99.90
42989;DHT22;28622;43.716;20.668;2022-12-07T01:29:47;8.50;99.90
42989;DHT22;28622;43.716;20.668;2022-12-07T01:32:12;8.50;99.90
42989;DHT22;28622;43.716;20.668;2022-12-07T01:34:38;8.50;99.90
42989;DHT22;28622;43.716;20.668;2022-12-07T01:37:06;8.50;99.90
42989;DHT22;28622;43.716;20.668;2022-12-07T01:39:32;8.50;99.90
42989;DHT22;28622;43.716;20.668;2022-12-07T01:41:58;8.50;99.90
42989;DHT22;28622;43.716;20.668;2022-12-07T01:44:28;8.60;99.90
42989;DHT22;28622;43.716;20.668;2022-12-07T01:47:04;8.60;99.90
42989;DHT22;28622;43.716;20.668;2022-12-07T01:49:34;8.60;99.90
42989;DHT22;28622;43.716;20.668;2022-12-07T01:52:20;8.50;99.90
42989;DHT22;28622;43.716;20.668;2022-12-07T01:54:50;8.60;99.90
42989;DHT22;28622;43.716;20.668;2022-12-07T01:57:17;8.60;99.90
42989;DHT22;28622;43.716;20.668;2022-12-07T01:59:45;8.60;99.90
42989;DHT22;28622;43.716;20.668;2022-12-07T02:02:20;8.60;99.90
42989;DHT22;28622;43.716;20.668;2022-12-07T02:04:47;8.60;99.90
42989;DHT22;28622;43.716;20.668;2022-12-07T02:07:13;8.60;99.90
42989;DHT22;28622;43.716;20.668;2022-12-07T02:09:38;8.60;99.90
42989;DHT22;28622;43.716;20.668;2022-12-07T02:12:05;8.60;99.90
42989;DHT22;28622;43.716;20.668;2022-12-07T02:14:31;8.50;99.90
42989;DHT22;28622;43.716;20.668;2022-12-07T02:17:24;8.50;99.90
42989;DHT22;28622;43.716;20.668;2022-12-07T02:20:04;8.50;99.90
42989;DHT22;28622;43.716;20.668;2022-12-07T02:31:19;8.60;99.90
42989;DHT22;28622;43.716;20.668;2022-12-07T02:33:57;8.60;99.90
42989;DHT22;28622;43.716;20.668;2022-12-07T02:36:31;8.50;99.90
42989;DHT22;28622;43.716;20.668;2022-12-07T02:41:37;8.50;99.90
42989;DHT22;28622;43.716;20.668;2022-12-07T02:44:08;8.50;99.90
42989;DHT22;28622;43.716;20.668;2022-12-07T02:46:57;8.50;99.90
42989;DHT22;28622;43.716;20.668;2022-12-07T02:49:25;8.50;99.90
42989;DHT22;28622;43.716;20.668;2022-12-07T02:51:52;8.50;99.90
42989;DHT22;28622;43.716;20.668;2022-12-07T02:54:19;8.50;99.90
42989;DHT22;28622;43.716;20.668;2022-12-07T02:59:36;8.60;99.90
42989;DHT22;28622;43.716;20.668;2022-12-07T03:16:12;8.70;99.90
42989;DHT22;28622;43.716;20.668;2022-12-07T03:18:50;8.70;99.90
42989;DHT22;28622;43.716;20.668;2022-12-07T03:21:22;8.60;99.90
42989;DHT22;28622;43.716;20.668;2022-12-07T03:23:53;8.60;99.90
42989;DHT22;28622;43.716;20.668;2022-12-07T03:26:21;8.60;99.90
42989;DHT22;28622;43.716;20.668;2022-12-07T03:28:52;8.60;99.90
42989;DHT22;28622;43.716;20.668;2022-12-07T03:31:29;8.50;99.90
42989;DHT22;28622;43.716;20.668;2022-12-07T03:34:27;8.50;99.90
42989;DHT22;28622;43.716;20.668;2022-12-07T03:36:57;8.50;99.90
42989;DHT22;28622;43.716;20.668;2022-12-07T03:39:43;8.50;99.90
42989;DHT22;28622;43.716;20.668;2022-12-07T03:42:10;8.50;99.90
42989;DHT22;28622;43.716;20.668;2022-12-07T03:44:39;8.50;99.90
42989;DHT22;28622;43.716;20.668;2022-12-07T03:52:36;8.40;99.90
42989;DHT22;28622;43.716;20.668;2022-12-07T03:55:10;8.40;99.90
42989;DHT22;28622;43.716;20.668;2022-12-07T03:57:38;8.40;99.90
42989;DHT22;28622;43.716;20.668;2022-12-07T04:00:06;8.40;99.90
42989;DHT22;28622;43.716;20.668;2022-12-07T04:02:33;8.40;99.90
42989;DHT22;28622;43.716;20.668;2022-12-07T04:05:01;8.40;99.90
42989;DHT22;28622;43.716;20.668;2022-12-07T04:07:27;8.30;99.90
42989;DHT22;28622;43.716;20.668;2022-12-07T04:09:52;8.30;99.90
42989;DHT22;28622;43.716;20.668;2022-12-07T04:12:20;8.30;99.90
42989;DHT22;28622;43.716;20.668;2022-12-07T04:14:46;8.30;99.90
42989;DHT22;28622;43.716;20.668;2022-12-07T04:17:12;8.30;99.90
42989;DHT22;28622;43.716;20.668;2022-12-07T04:19:38;8.30;99.90
42989;DHT22;28622;43.716;20.668;2022-12-07T04:22:04;8.30;99.90
42989;DHT22;28622;43.716;20.668;2022-12-07T04:24:31;8.20;99.90
42989;DHT22;28622;43.716;20.668;2022-12-07T04:26:56;8.20;99.90
42989;DHT22;28622;43.716;20.668;2022-12-07T04:29:23;8.20;99.90
42989;DHT22;28622;43.716;20.668;2022-12-07T04:31:49;8.20;99.90
42989;DHT22;28622;43.716;20.668;2022-12-07T04:34:16;8.20;99.90
42989;DHT22;28622;43.716;20.668;2022-12-07T04:36:42;8.20;99.90
42989;DHT22;28622;43.716;20.668;2022-12-07T04:39:26;8.20;99.90
42989;DHT22;28622;43.716;20.668;2022-12-07T04:41:53;8.20;99.90
42989;DHT22;28622;43.716;20.668;2022-12-07T04:44:20;8.20;99.90
42989;DHT22;28622;43.716;20.668;2022-12-07T04:46:46;8.20;99.90
42989;DHT22;28622;43.716;20.668;2022-12-07T04:49:12;8.20;99.90
42989;DHT22;28622;43.716;20.668;2022-12-07T04:51:38;8.20;99.90
42989;DHT22;28622;43.716;20.668;2022-12-07T04:54:04;8.20;99.90
42989;DHT22;28622;43.716;20.668;2022-12-07T04:56:30;8.20;99.90
42989;DHT22;28622;43.716;20.668;2022-12-07T04:58:56;8.20;99.90
42989;DHT22;28622;43.716;20.668;2022-12-07T05:01:23;8.10;99.90
42989;DHT22;28622;43.716;20.668;2022-12-07T05:03:49;8.10;99.90
42989;DHT22;28622;43.716;20.668;2022-12-07T05:06:15;8.10;99.90
42989;DHT22;28622;43.716;20.668;2022-12-07T05:08:41;8.10;99.90
42989;DHT22;28622;43.716;20.668;2022-12-07T05:11:08;8.10;99.90
42989;DHT22;28622;43.716;20.668;2022-12-07T05:13:34;8.20;99.90
42989;DHT22;28622;43.716;20.668;2022-12-07T05:16:00;8.20;99.90
42989;DHT22;28622;43.716;20.668;2022-12-07T05:18:26;8.20;99.90
42989;DHT22;28622;43.716;20.668;2022-12-07T05:20:52;8.20;99.90
42989;DHT22;28622;43.716;20.668;2022-12-07T05:23:18;8.20;99.90
42989;DHT22;28622;43.716;20.668;2022-12-07T05:25:44;8.20;99.90
42989;DHT22;28622;43.716;20.668;2022-12-07T05:28:11;8.20;99.90
42989;DHT22;28622;43.716;20.668;2022-12-07T05:30:36;8.20;99.90
42989;DHT22;28622;43.716;20.668;2022-12-07T05:33:03;8.20;99.90
42989;DHT22;28622;43.716;20.668;2022-12-07T05:35:29;8.20;99.90
42989;DHT22;28622;43.716;20.668;2022-12-07T05:37:55;8.20;99.90
42989;DHT22;28622;43.716;20.668;2022-12-07T05:40:23;8.20;99.90
42989;DHT22;28622;43.716;20.668;2022-12-07T05:42:49;8.20;99.90
42989;DHT22;28622;43.716;20.668;2022-12-07T05:45:15;8.20;99.90
42989;DHT22;28622;43.716;20.668;2022-12-07T05:47:41;8.20;99.90
42989;DHT22;28622;43.716;20.668;2022-12-07T05:50:07;8.20;99.90
42989;DHT22;28622;43.716;20.668;2022-12-07T05:52:33;8.20;99.90
42989;DHT22;28622;43.716;20.668;2022-12-07T05:54:58;8.20;99.90
42989;DHT22;28622;43.716;20.668;2022-12-07T05:57:24;8.20;99.90
42989;DHT22;28622;43.716;20.668;2022-12-07T05:59:50;8.20;99.90
42989;DHT22;28622;43.716;20.668;2022-12-07T06:02:16;8.20;99.90
42989;DHT22;28622;43.716;20.668;2022-12-07T06:04:45;8.10;99.90
42989;DHT22;28622;43.716;20.668;2022-12-07T06:07:13;8.10;99.90
42989;DHT22;28622;43.716;20.668;2022-12-07T06:09:39;8.10;99.90
42989;DHT22;28622;43.716;20.668;2022-12-07T06:12:05;8.10;99.90
42989;DHT22;28622;43.716;20.668;2022-12-07T06:14:50;8.00;99.90
42989;DHT22;28622;43.716;20.668;2022-12-07T06:17:16;8.00;99.90
42989;DHT22;28622;43.716;20.668;2022-12-07T06:19:42;8.00;99.90
42989;DHT22;28622;43.716;20.668;2022-12-07T06:22:09;8.00;99.90
42989;DHT22;28622;43.716;20.668;2022-12-07T06:24:36;8.00;99.90
42989;DHT22;28622;43.716;20.668;2022-12-07T06:27:02;8.00;99.90
42989;DHT22;28622;43.716;20.668;2022-12-07T06:29:27;8.00;99.90
42989;DHT22;28622;43.716;20.668;2022-12-07T06:31:53;8.00;99.90
42989;DHT22;28622;43.716;20.668;2022-12-07T06:34:20;8.00;99.90
42989;DHT22;28622;43.716;20.668;2022-12-07T06:36:49;8.00;99.90
42989;DHT22;28622;43.716;20.668;2022-12-07T06:39:18;7.90;99.90
42989;DHT22;28622;43.716;20.668;2022-12-07T06:41:44;7.90;99.90
42989;DHT22;28622;43.716;20.668;2022-12-07T06:44:10;7.90;99.90
42989;DHT22;28622;43.716;20.668;2022-12-07T06:46:36;7.90;99.90
42989;DHT22;28622;43.716;20.668;2022-12-07T06:49:02;7.90;99.90
42989;DHT22;28622;43.716;20.668;2022-12-07T06:51:28;7.90;99.90
42989;DHT22;28622;43.716;20.668;2022-12-07T06:53:55;7.90;99.90
42989;DHT22;28622;43.716;20.668;2022-12-07T06:56:21;7.90;99.90
42989;DHT22;28622;43.716;20.668;2022-12-07T06:58:48;7.90;99.90
42989;DHT22;28622;43.716;20.668;2022-12-07T07:01:16;8.00;99.90
42989;DHT22;28622;43.716;20.668;2022-12-07T07:03:42;8.00;99.90
42989;DHT22;28622;43.716;20.668;2022-12-07T07:06:08;8.00;99.90
42989;DHT22;28622;43.716;20.668;2022-12-07T07:08:35;8.10;99.90
42989;DHT22;28622;43.716;20.668;2022-12-07T07:11:01;8.10;99.90
42989;DHT22;28622;43.716;20.668;2022-12-07T07:13:27;8.10;99.90
42989;DHT22;28622;43.716;20.668;2022-12-07T07:15:53;8.10;99.90
42989;DHT22;28622;43.716;20.668;2022-12-07T07:18:19;8.10;99.90
42989;DHT22;28622;43.716;20.668;2022-12-07T07:20:45;8.10;99.90
42989;DHT22;28622;43.716;20.668;2022-12-07T07:23:11;8.10;99.90
42989;DHT22;28622;43.716;20.668;2022-12-07T07:25:37;8.10;99.90
42989;DHT22;28622;43.716;20.668;2022-12-07T07:28:03;8.20;99.90
42989;DHT22;28622;43.716;20.668;2022-12-07T07:30:29;8.20;99.90
42989;DHT22;28622;43.716;20.668;2022-12-07T07:33:02;8.30;99.90
42989;DHT22;28622;43.716;20.668;2022-12-07T07:35:30;8.30;99.90
42989;DHT22;28622;43.716;20.668;2022-12-07T07:37:56;8.30;99.90
42989;DHT22;28622;43.716;20.668;2022-12-07T07:40:22;8.40;99.90
42989;DHT22;28622;43.716;20.668;2022-12-07T07:42:50;8.40;99.90
42989;DHT22;28622;43.716;20.668;2022-12-07T07:45:17;8.40;99.90
42989;DHT22;28622;43.716;20.668;2022-12-07T07:47:43;8.40;99.90
42989;DHT22;28622;43.716;20.668;2022-12-07T07:50:09;8.50;99.90
42989;DHT22;28622;43.716;20.668;2022-12-07T07:52:35;8.50;99.90
42989;DHT22;28622;43.716;20.668;2022-12-07T07:55:01;8.50;99.90
42989;DHT22;28622;43.716;20.668;2022-12-07T07:57:27;8.50;99.90
42989;DHT22;28622;43.716;20.668;2022-12-07T07:59:53;8.50;99.90
42989;DHT22;28622;43.716;20.668;2022-12-07T08:02:20;8.50;99.90
42989;DHT22;28622;43.716;20.668;2022-12-07T08:04:46;8.50;99.90
42989;DHT22;28622;43.716;20.668;2022-12-07T08:07:13;8.60;99.90
42989;DHT22;28622;43.716;20.668;2022-12-07T08:09:39;8.60;99.90
42989;DHT22;28622;43.716;20.668;2022-12-07T08:12:05;8.70;99.90
42989;DHT22;28622;43.716;20.668;2022-12-07T08:14:31;8.80;99.90
42989;DHT22;28622;43.716;20.668;2022-12-07T08:16:57;8.80;99.90
42989;DHT22;28622;43.716;20.668;2022-12-07T08:19:23;8.80;99.90
42989;DHT22;28622;43.716;20.668;2022-12-07T08:21:49;8.90;99.90
42989;DHT22;28622;43.716;20.668;2022-12-07T08:24:15;8.90;99.90
42989;DHT22;28622;43.716;20.668;2022-12-07T08:26:41;9.00;99.90
42989;DHT22;28622;43.716;20.668;2022-12-07T08:29:07;9.00;99.90
42989;DHT22;28622;43.716;20.668;2022-12-07T08:31:33;9.00;99.90
42989;DHT22;28622;43.716;20.668;2022-12-07T08:33:59;9.00;99.90
42989;DHT22;28622;43.716;20.668;2022-12-07T08:36:25;9.10;99.90
42989;DHT22;28622;43.716;20.668;2022-12-07T08:38:52;9.10;99.90
42989;DHT22;28622;43.716;20.668;2022-12-07T08:41:18;9.20;99.90
42989;DHT22;28622;43.716;20.668;2022-12-07T08:43:43;9.10;99.90
42989;DHT22;28622;43.716;20.668;2022-12-07T08:46:23;9.10;99.90
42989;DHT22;28622;43.716;20.668;2022-12-07T08:49:21;9.10;99.90
42989;DHT22;28622;43.716;20.668;2022-12-07T08:51:49;9.10;99.90
42989;DHT22;28622;43.716;20.668;2022-12-07T08:54:17;9.20;99.90
42989;DHT22;28622;43.716;20.668;2022-12-07T08:56:44;9.10;99.90
42989;DHT22;28622;43.716;20.668;2022-12-07T08:59:14;9.20;99.90
42989;DHT22;28622;43.716;20.668;2022-12-07T09:01:41;9.20;99.90
42989;DHT22;28622;43.716;20.668;2022-12-07T09:04:07;9.20;99.90
42989;DHT22;28622;43.716;20.668;2022-12-07T09:06:33;9.20;99.90
42989;DHT22;28622;43.716;20.668;2022-12-07T09:09:01;9.20;99.90
42989;DHT22;28622;43.716;20.668;2022-12-07T09:11:27;9.20;99.90
42989;DHT22;28622;43.716;20.668;2022-12-07T09:13:53;9.20;99.90
42989;DHT22;28622;43.716;20.668;2022-12-07T09:16:19;9.10;99.90
42989;DHT22;28622;43.716;20.668;2022-12-07T09:18:44;9.10;99.90
42989;DHT22;28622;43.716;20.668;2022-12-07T09:21:10;9.20;99.90
42989;DHT22;28622;43.716;20.668;2022-12-07T09:23:36;9.20;99.90
42989;DHT22;28622;43.716;20.668;2022-12-07T09:26:03;9.20;99.90
42989;DHT22;28622;43.716;20.668;2022-12-07T09:28:33;9.30;99.90
42989;DHT22;28622;43.716;20.668;2022-12-07T09:31:02;9.30;99.90
42989;DHT22;28622;43.716;20.668;2022-12-07T09:33:28;9.30;99.90
42989;DHT22;28622;43.716;20.668;2022-12-07T09:35:54;9.40;99.90
42989;DHT22;28622;43.716;20.668;2022-12-07T09:38:20;9.30;99.90
42989;DHT22;28622;43.716;20.668;2022-12-07T09:40:47;9.30;99.90
42989;DHT22;28622;43.716;20.668;2022-12-07T09:43:15;9.30;99.90
42989;DHT22;28622;43.716;20.668;2022-12-07T09:45:41;9.20;99.90
42989;DHT22;28622;43.716;20.668;2022-12-07T09:48:18;9.30;99.90
42989;DHT22;28622;43.716;20.668;2022-12-07T09:50:46;9.40;99.90
42989;DHT22;28622;43.716;20.668;2022-12-07T09:53:26;9.40;99.90
42989;DHT22;28622;43.716;20.668;2022-12-07T09:55:53;9.50;99.90
42989;DHT22;28622;43.716;20.668;2022-12-07T09:58:25;9.50;99.90
42989;DHT22;28622;43.716;20.668;2022-12-07T10:00:58;9.50;99.90
42989;DHT22;28622;43.716;20.668;2022-12-07T10:03:27;9.50;99.90
42989;DHT22;28622;43.716;20.668;2022-12-07T10:05:53;9.50;99.90
42989;DHT22;28622;43.716;20.668;2022-12-07T10:08:18;9.60;99.90
42989;DHT22;28622;43.716;20.668;2022-12-07T10:10:46;9.60;99.90
42989;DHT22;28622;43.716;20.668;2022-12-07T10:13:15;9.60;99.90
42989;DHT22;28622;43.716;20.668;2022-12-07T10:18:38;9.70;99.90
42989;DHT22;28622;43.716;20.668;2022-12-07T10:21:20;9.70;99.90
42989;DHT22;28622;43.716;20.668;2022-12-07T10:26:50;9.70;99.90
42989;DHT22;28622;43.716;20.668;2022-12-07T10:32:02;9.70;99.90
42989;DHT22;28622;43.716;20.668;2022-12-07T10:34:30;9.60;99.90
42989;DHT22;28622;43.716;20.668;2022-12-07T10:40:01;9.60;99.90
42989;DHT22;28622;43.716;20.668;2022-12-07T10:42:31;9.60;99.90
42989;DHT22;28622;43.716;20.668;2022-12-07T10:45:29;9.60;99.90
42989;DHT22;28622;43.716;20.668;2022-12-07T10:54:40;9.50;99.90
42989;DHT22;28622;43.716;20.668;2022-12-07T11:00:01;9.60;99.90
42989;DHT22;28622;43.716;20.668;2022-12-07T11:16:31;9.90;99.90
42989;DHT22;28622;43.716;20.668;2022-12-07T11:30:10;10.10;99.90
42989;DHT22;28622;43.716;20.668;2022-12-07T11:38:22;10.20;99.90
42989;DHT22;28622;43.716;20.668;2022-12-07T11:40:49;10.20;99.90
42989;DHT22;28622;43.716;20.668;2022-12-07T11:43:31;10.20;99.90
42989;DHT22;28622;43.716;20.668;2022-12-07T11:46:10;10.20;99.90
42989;DHT22;28622;43.716;20.668;2022-12-07T11:49:03;10.20;99.90
42989;DHT22;28622;43.716;20.668;2022-12-07T11:51:35;10.20;99.90
42989;DHT22;28622;43.716;20.668;2022-12-07T11:54:16;10.10;99.90
42989;DHT22;28622;43.716;20.668;2022-12-07T11:56:44;10.10;99.90
42989;DHT22;28622;43.716;20.668;2022-12-07T11:59:12;10.00;99.90
42989;DHT22;28622;43.716;20.668;2022-12-07T12:01:48;10.00;99.90
42989;DHT22;28622;43.716;20.668;2022-12-07T12:07:21;9.90;99.90
42989;DHT22;28622;43.716;20.668;2022-12-07T12:10:06;9.90;99.90
42989;DHT22;28622;43.716;20.668;2022-12-07T12:17:57;9.80;99.90
42989;DHT22;28622;43.716;20.668;2022-12-07T12:20:29;9.80;99.90
42989;DHT22;28622;43.716;20.668;2022-12-07T12:26:24;9.80;99.90
42989;DHT22;28622;43.716;20.668;2022-12-07T12:28:54;9.80;99.90
42989;DHT22;28622;43.716;20.668;2022-12-07T12:33:50;9.80;99.90
42989;DHT22;28622;43.716;20.668;2022-12-07T12:46:53;9.70;99.90
42989;DHT22;28622;43.716;20.668;2022-12-07T12:57:31;9.80;99.90
42989;DHT22;28622;43.716;20.668;2022-12-07T13:00:21;9.80;99.90
42989;DHT22;28622;43.716;20.668;2022-12-07T13:02:53;9.70;99.90
42989;DHT22;28622;43.716;20.668;2022-12-07T13:05:23;9.70;99.90
42989;DHT22;28622;43.716;20.668;2022-12-07T13:12:59;9.80;99.90
42989;DHT22;28622;43.716;20.668;2022-12-07T13:33:36;9.80;99.90
42989;DHT22;28622;43.716;20.668;2022-12-07T13:36:02;9.90;99.90
42989;DHT22;28622;43.716;20.668;2022-12-07T13:38:33;9.80;99.90
42989;DHT22;28622;43.716;20.668;2022-12-07T13:41:04;9.90;99.90
42989;DHT22;28622;43.716;20.668;2022-12-07T13:43:31;9.80;99.90
42989;DHT22;28622;43.716;20.668;2022-12-07T13:45:57;9.90;99.90
42989;DHT22;28622;43.716;20.668;2022-12-07T13:48:44;9.90;99.90
42989;DHT22;28622;43.716;20.668;2022-12-07T13:51:21;9.80;99.90
42989;DHT22;28622;43.716;20.668;2022-12-07T13:54:01;9.80;99.90
42989;DHT22;28622;43.716;20.668;2022-12-07T13:56:35;9.80;99.90
42989;DHT22;28622;43.716;20.668;2022-12-07T13:59:02;9.80;99.90
42989;DHT22;28622;43.716;20.668;2022-12-07T14:01:33;9.70;99.90
42989;DHT22;28622;43.716;20.668;2022-12-07T14:04:37;9.80;99.90
42989;DHT22;28622;43.716;20.668;2022-12-07T14:07:25;9.70;99.90
42989;DHT22;28622;43.716;20.668;2022-12-07T14:10:02;9.70;99.90
42989;DHT22;28622;43.716;20.668;2022-12-07T14:12:30;9.70;99.90
42989;DHT22;28622;43.716;20.668;2022-12-07T14:14:57;9.70;99.90
42989;DHT22;28622;43.716;20.668;2022-12-07T14:17:25;9.70;99.90
42989;DHT22;28622;43.716;20.668;2022-12-07T14:19:54;9.70;99.90
42989;DHT22;28622;43.716;20.668;2022-12-07T14:24:59;9.80;99.90
42989;DHT22;28622;43.716;20.668;2022-12-07T14:27:31;9.70;99.90
42989;DHT22;28622;43.716;20.668;2022-12-07T14:30:00;9.70;99.90
42989;DHT22;28622;43.716;20.668;2022-12-07T14:32:28;9.70;99.90
42989;DHT22;28622;43.716;20.668;2022-12-07T14:37:20;9.70;99.90
42989;DHT22;28622;43.716;20.668;2022-12-07T14:39:46;9.70;99.90
42989;DHT22;28622;43.716;20.668;2022-12-07T14:42:12;9.70;99.90
42989;DHT22;28622;43.716;20.668;2022-12-07T14:44:37;9.70;99.90
42989;DHT22;28622;43.716;20.668;2022-12-07T14:47:03;9.70;99.90
42989;DHT22;28622;43.716;20.668;2022-12-07T14:49:29;9.60;99.90
42989;DHT22;28622;43.716;20.668;2022-12-07T14:51:55;9.60;99.90
42989;DHT22;28622;43.716;20.668;2022-12-07T14:54:25;9.60;99.90
42989;DHT22;28622;43.716;20.668;2022-12-07T14:56:51;9.60;99.90
42989;DHT22;28622;43.716;20.668;2022-12-07T14:59:17;9.60;99.90
42989;DHT22;28622;43.716;20.668;2022-12-07T15:01:44;9.60;99.90
42989;DHT22;28622;43.716;20.668;2022-12-07T15:04:10;9.50;99.90
42989;DHT22;28622;43.716;20.668;2022-12-07T15:06:36;9.50;99.90
42989;DHT22;28622;43.716;20.668;2022-12-07T15:09:02;9.40;99.90
42989;DHT22;28622;43.716;20.668;2022-12-07T15:11:28;9.40;99.90
42989;DHT22;28622;43.716;20.668;2022-12-07T15:13:54;9.30;99.90
42989;DHT22;28622;43.716;20.668;2022-12-07T15:16:37;9.30;99.90
42989;DHT22;28622;43.716;20.668;2022-12-07T15:19:07;9.20;99.90
42989;DHT22;28622;43.716;20.668;2022-12-07T15:21:36;9.10;99.90
42989;DHT22;28622;43.716;20.668;2022-12-07T15:24:02;9.10;99.90
42989;DHT22;28622;43.716;20.668;2022-12-07T15:26:28;9.10;99.90
42989;DHT22;28622;43.716;20.668;2022-12-07T15:28:54;9.00;99.90
42989;DHT22;28622;43.716;20.668;2022-12-07T15:31:20;9.00;99.90
42989;DHT22;28622;43.716;20.668;2022-12-07T15:33:45;9.00;99.90
42989;DHT22;28622;43.716;20.668;2022-12-07T15:36:22;9.00;99.90
42989;DHT22;28622;43.716;20.668;2022-12-07T15:38:48;9.10;99.90
42989;DHT22;28622;43.716;20.668;2022-12-07T15:41:14;9.10;99.90
42989;DHT22;28622;43.716;20.668;2022-12-07T15:43:40;9.10;99.90
42989;DHT22;28622;43.716;20.668;2022-12-07T15:46:33;9.00;99.90
42989;DHT22;28622;43.716;20.668;2022-12-07T15:49:00;9.00;99.90
42989;DHT22;28622;43.716;20.668;2022-12-07T15:51:26;9.00;99.90
42989;DHT22;28622;43.716;20.668;2022-12-07T15:53:52;9.00;99.90
42989;DHT22;28622;43.716;20.668;2022-12-07T15:56:19;8.90;99.90
42989;DHT22;28622;43.716;20.668;2022-12-07T15:58:45;8.90;99.90
42989;DHT22;28622;43.716;20.668;2022-12-07T16:01:16;8.90;99.90
42989;DHT22;28622;43.716;20.668;2022-12-07T16:03:42;8.90;99.90
42989;DHT22;28622;43.716;20.668;2022-12-07T16:06:09;8.80;99.90
42989;DHT22;28622;43.716;20.668;2022-12-07T16:08:42;8.80;99.90
42989;DHT22;28622;43.716;20.668;2022-12-07T16:11:09;8.70;99.90
42989;DHT22;28622;43.716;20.668;2022-12-07T16:13:35;8.70;99.90
42989;DHT22;28622;43.716;20.668;2022-12-07T16:16:10;8.50;99.90
42989;DHT22;28622;43.716;20.668;2022-12-07T16:18:37;8.60;99.90
42989;DHT22;28622;43.716;20.668;2022-12-07T16:21:03;8.60;99.90
42989;DHT22;28622;43.716;20.668;2022-12-07T16:23:29;8.50;99.90
42989;DHT22;28622;43.716;20.668;2022-12-07T16:26:06;8.50;99.90
42989;DHT22;28622;43.716;20.668;2022-12-07T16:28:34;8.50;99.90
42989;DHT22;28622;43.716;20.668;2022-12-07T16:31:08;8.40;99.90
42989;DHT22;28622;43.716;20.668;2022-12-07T16:33:36;8.30;99.90
42989;DHT22;28622;43.716;20.668;2022-12-07T16:36:04;8.30;99.90
42989;DHT22;28622;43.716;20.668;2022-12-07T16:38:30;8.30;99.90
42989;DHT22;28622;43.716;20.668;2022-12-07T16:40:55;8.20;99.90
42989;DHT22;28622;43.716;20.668;2022-12-07T16:43:21;8.00;99.90
42989;DHT22;28622;43.716;20.668;2022-12-07T16:45:48;8.10;99.90
42989;DHT22;28622;43.716;20.668;2022-12-07T16:48:14;8.10;99.90
42989;DHT22;28622;43.716;20.668;2022-12-07T16:50:41;8.00;99.90
42989;DHT22;28622;43.716;20.668;2022-12-07T16:53:11;7.90;99.90
42989;DHT22;28622;43.716;20.668;2022-12-07T16:55:39;7.90;99.90
42989;DHT22;28622;43.716;20.668;2022-12-07T16:58:05;7.90;99.90
42989;DHT22;28622;43.716;20.668;2022-12-07T17:00:33;7.90;99.90
42989;DHT22;28622;43.716;20.668;2022-12-07T17:02:59;8.00;99.90
42989;DHT22;28622;43.716;20.668;2022-12-07T17:05:26;7.90;99.90
42989;DHT22;28622;43.716;20.668;2022-12-07T17:07:55;7.90;99.90
42989;DHT22;28622;43.716;20.668;2022-12-07T17:10:22;7.80;99.90
42989;DHT22;28622;43.716;20.668;2022-12-07T17:12:48;7.80;99.90
42989;DHT22;28622;43.716;20.668;2022-12-07T17:15:15;7.80;99.90
42989;DHT22;28622;43.716;20.668;2022-12-07T17:17:52;7.80;99.90
42989;DHT22;28622;43.716;20.668;2022-12-07T17:20:19;7.80;99.90
42989;DHT22;28622;43.716;20.668;2022-12-07T17:22:45;7.70;99.90
42989;DHT22;28622;43.716;20.668;2022-12-07T17:25:12;7.70;99.90
42989;DHT22;28622;43.716;20.668;2022-12-07T17:27:37;7.60;99.90
42989;DHT22;28622;43.716;20.668;2022-12-07T17:30:04;7.50;99.90
42989;DHT22;28622;43.716;20.668;2022-12-07T17:32:31;7.40;99.90
42989;DHT22;28622;43.716;20.668;2022-12-07T17:34:57;7.40;99.90
42989;DHT22;28622;43.716;20.668;2022-12-07T17:37:22;7.30;99.90
42989;DHT22;28622;43.716;20.668;2022-12-07T17:39:48;7.40;99.90
42989;DHT22;28622;43.716;20.668;2022-12-07T17:42:17;7.40;99.90
42989;DHT22;28622;43.716;20.668;2022-12-07T17:45:08;7.30;99.90
42989;DHT22;28622;43.716;20.668;2022-12-07T17:47:38;7.40;99.90
42989;DHT22;28622;43.716;20.668;2022-12-07T17:50:05;7.40;99.90
42989;DHT22;28622;43.716;20.668;2022-12-07T17:52:32;7.30;99.90
42989;DHT22;28622;43.716;20.668;2022-12-07T17:55:16;7.30;99.90
42989;DHT22;28622;43.716;20.668;2022-12-07T17:57:42;7.30;99.90
42989;DHT22;28622;43.716;20.668;2022-12-07T18:00:09;7.20;99.90
42989;DHT22;28622;43.716;20.668;2022-12-07T18:02:36;7.20;99.90
42989;DHT22;28622;43.716;20.668;2022-12-07T18:05:02;7.20;99.90
42989;DHT22;28622;43.716;20.668;2022-12-07T18:07:28;7.20;99.90
42989;DHT22;28622;43.716;20.668;2022-12-07T18:09:56;7.20;99.90